createdAt,value
2023-01-31T00:01:47.804Z,10.77
2023-01-31T00:04:15.127Z,12.30
2023-01-31T00:06:44.500Z,11.63
2023-01-31T00:09:12.175Z,8.37
2023-01-31T00:11:39.548Z,9.13
2023-01-31T00:14:07.014Z,14.00
2023-01-31T00:16:34.135Z,10.23
2023-01-31T00:19:01.036Z,9.23
2023-01-31T00:21:29.989Z,11.57
2023-01-31T00:23:58.437Z,9.93
2023-01-31T00:26:26.696Z,10.60
2023-01-31T00:28:55.778Z,13.33
2023-01-31T00:31:24.299Z,11.93
2023-01-31T00:33:53.042Z,13.47
2023-01-31T00:36:22.029Z,12.23
2023-01-31T00:38:50.667Z,13.00
2023-01-31T00:41:19.307Z,10.63
2023-01-31T00:43:46.792Z,15.57
2023-01-31T00:46:14.875Z,17.33
2023-01-31T00:48:42.925Z,19.70
2023-01-31T00:51:10.002Z,14.10
2023-01-31T00:53:38.371Z,17.03
2023-01-31T00:56:07.894Z,11.00
2023-01-31T00:58:37.276Z,12.30
2023-01-31T01:01:08.680Z,14.73
2023-01-31T01:03:37.215Z,15.27
2023-01-31T01:06:05.169Z,16.77
2023-01-31T01:08:32.591Z,14.00
2023-01-31T01:11:09.682Z,20.47
2023-01-31T01:13:37.242Z,20.17
2023-01-31T01:16:07.959Z,15.47
2023-01-31T01:18:36.174Z,14.10
2023-01-31T01:21:05.751Z,13.60
2023-01-31T01:23:33.046Z,13.67
2023-01-31T01:25:59.903Z,15.30
2023-01-31T01:28:29.132Z,16.23
2023-01-31T01:30:56.743Z,14.73
2023-01-31T01:33:23.543Z,17.73
2023-01-31T01:35:50.400Z,9.63
2023-01-31T01:38:17.210Z,11.83
2023-01-31T01:40:44.097Z,14.93
2023-01-31T01:43:14.928Z,12.33
2023-01-31T01:45:41.942Z,13.73
2023-01-31T01:48:11.343Z,18.93
2023-01-31T01:50:41.297Z,16.77
2023-01-31T01:53:13.810Z,18.23
2023-01-31T01:55:42.515Z,12.23
2023-01-31T01:58:18.200Z,11.40
2023-01-31T02:00:45.647Z,17.60
2023-01-31T02:03:12.980Z,14.43
2023-01-31T02:05:59.003Z,12.47
2023-01-31T02:08:27.700Z,20.90
2023-01-31T02:11:01.575Z,10.77
2023-01-31T02:13:28.637Z,15.67
2023-01-31T02:15:55.863Z,12.93
2023-01-31T02:18:24.501Z,13.27
2023-01-31T02:21:10.248Z,18.17
2023-01-31T02:23:45.756Z,14.43
2023-01-31T02:26:15.608Z,10.20
2023-01-31T02:29:21.064Z,13.07
2023-01-31T02:31:47.983Z,10.63
2023-01-31T02:34:15.294Z,13.93
2023-01-31T02:37:02.746Z,15.03
2023-01-31T02:39:36.075Z,9.87
2023-01-31T02:42:14.135Z,16.50
2023-01-31T02:44:59.399Z,10.77
2023-01-31T02:47:41.616Z,9.77
2023-01-31T02:50:20.792Z,9.30
2023-01-31T02:52:54.616Z,9.70
2023-01-31T02:55:53.687Z,15.37
2023-01-31T02:58:21.929Z,14.23
2023-01-31T03:00:49.530Z,9.90
2023-01-31T03:03:22.706Z,11.60
2023-01-31T03:06:09.564Z,16.70
2023-01-31T03:08:37.437Z,10.53
2023-01-31T03:11:06.115Z,11.23
2023-01-31T03:13:45.312Z,13.10
2023-01-31T03:16:33.492Z,13.97
2023-01-31T03:19:14.142Z,9.40
2023-01-31T03:21:47.374Z,11.67
2023-01-31T03:24:15.548Z,9.13
2023-01-31T03:26:42.866Z,10.20
2023-01-31T03:29:11.261Z,11.27
2023-01-31T03:31:38.181Z,5.13
2023-01-31T03:34:07.030Z,6.83
2023-01-31T03:36:38.827Z,5.80
2023-01-31T03:39:45.177Z,7.97
2023-01-31T03:42:19.718Z,4.13
2023-01-31T03:44:52.386Z,7.27
2023-01-31T03:47:23.151Z,5.43
2023-01-31T03:49:51.313Z,5.07
2023-01-31T03:52:26.993Z,5.43
2023-01-31T03:55:05.372Z,9.47
2023-01-31T03:57:35.030Z,9.20
2023-01-31T04:00:03.434Z,6.70
2023-01-31T04:02:35.092Z,6.23
2023-01-31T04:05:09.791Z,6.97
2023-01-31T04:07:40.323Z,11.50
2023-01-31T04:10:13.161Z,9.93
2023-01-31T04:12:40.360Z,9.73
2023-01-31T04:15:07.393Z,6.53
2023-01-31T04:17:34.265Z,10.33
2023-01-31T04:20:01.181Z,13.40
2023-01-31T04:22:28.024Z,8.87
2023-01-31T04:24:54.931Z,10.60
2023-01-31T04:27:21.665Z,18.30
2023-01-31T04:29:48.551Z,17.97
2023-01-31T04:32:15.576Z,17.90
2023-01-31T04:34:42.414Z,19.20
2023-01-31T04:37:09.227Z,12.63
2023-01-31T04:39:36.616Z,11.23
2023-01-31T04:42:03.633Z,11.70
2023-01-31T04:44:30.493Z,7.20
2023-01-31T04:46:57.353Z,10.63
2023-01-31T04:49:24.827Z,11.67
2023-01-31T04:51:51.984Z,9.70
2023-01-31T04:54:18.722Z,7.20
2023-01-31T04:56:46.137Z,12.57
2023-01-31T04:59:12.869Z,7.53
2023-01-31T05:01:39.894Z,15.20
2023-01-31T05:04:07.065Z,9.00
2023-01-31T05:06:33.944Z,12.47
2023-01-31T05:09:01.778Z,9.30
2023-01-31T05:11:29.253Z,15.07
2023-01-31T05:13:56.004Z,12.23
2023-01-31T05:16:22.978Z,9.80
2023-01-31T05:18:51.088Z,13.97
2023-01-31T05:21:18.233Z,10.77
2023-01-31T05:23:45.088Z,19.33
2023-01-31T05:26:11.865Z,14.93
2023-01-31T05:28:38.703Z,15.67
2023-01-31T05:31:07.142Z,13.77
2023-01-31T05:33:34.400Z,14.50
2023-01-31T05:36:02.395Z,15.60
2023-01-31T05:38:29.254Z,8.83
2023-01-31T05:40:56.075Z,9.80
2023-01-31T05:43:22.902Z,13.23
2023-01-31T05:45:50.241Z,8.97
2023-01-31T05:48:17.130Z,12.87
2023-01-31T05:50:43.931Z,10.47
2023-01-31T05:53:11.343Z,12.87
2023-01-31T05:55:38.211Z,8.10
2023-01-31T05:58:04.992Z,10.73
2023-01-31T06:00:32.205Z,16.13
2023-01-31T06:02:59.885Z,20.20
2023-01-31T06:05:27.508Z,12.50
2023-01-31T06:07:54.479Z,14.17
2023-01-31T06:10:21.475Z,19.23
2023-01-31T06:12:48.396Z,15.73
2023-01-31T06:15:15.300Z,14.73
2023-01-31T06:17:42.054Z,13.07
2023-01-31T06:20:09.266Z,14.60
2023-01-31T06:22:36.444Z,16.77
2023-01-31T06:25:03.268Z,16.13
2023-01-31T06:27:31.942Z,17.63
2023-01-31T06:29:59.263Z,9.63
2023-01-31T06:32:26.201Z,13.70
2023-01-31T06:34:52.947Z,15.70
2023-01-31T06:37:19.822Z,15.50
2023-01-31T06:39:46.694Z,15.30
2023-01-31T06:42:13.439Z,18.57
2023-01-31T06:44:40.365Z,18.17
2023-01-31T06:47:07.167Z,18.70
2023-01-31T06:49:34.026Z,6.97
2023-01-31T06:52:01.453Z,10.57
2023-01-31T06:54:28.228Z,15.27
2023-01-31T06:56:55.105Z,18.50
2023-01-31T06:59:21.831Z,15.47
2023-01-31T07:01:48.747Z,15.13
2023-01-31T07:04:15.746Z,16.23
2023-01-31T07:06:42.512Z,10.10
2023-01-31T07:09:09.455Z,15.30
2023-01-31T07:11:37.315Z,12.57
2023-01-31T07:14:04.268Z,13.97
2023-01-31T07:16:31.463Z,14.53
2023-01-31T07:18:58.244Z,18.00
2023-01-31T07:21:26.462Z,20.87
2023-01-31T07:23:53.318Z,17.93
2023-01-31T07:26:20.249Z,19.60
2023-01-31T07:28:47.065Z,13.20
2023-01-31T07:31:14.927Z,10.30
2023-01-31T07:33:42.346Z,14.30
2023-01-31T07:36:12.239Z,12.80
2023-01-31T07:38:39.074Z,16.10
2023-01-31T07:41:05.935Z,17.70
2023-01-31T07:43:33.238Z,16.80
2023-01-31T07:46:00.194Z,19.77
2023-01-31T07:48:27.720Z,16.80
2023-01-31T07:50:58.644Z,18.27
2023-01-31T07:53:25.403Z,16.47
2023-01-31T07:55:52.299Z,10.13
2023-01-31T07:58:19.148Z,10.00
2023-01-31T08:01:04.608Z,21.03
2023-01-31T08:03:34.540Z,21.30
2023-01-31T08:06:07.715Z,22.00
2023-01-31T08:08:35.061Z,14.13
2023-01-31T08:11:02.045Z,8.30
2023-01-31T08:13:29.363Z,14.90
2023-01-31T08:15:56.242Z,22.00
2023-01-31T08:18:23.167Z,26.17
2023-01-31T08:20:49.922Z,14.33
2023-01-31T08:23:16.779Z,17.57
2023-01-31T08:25:44.472Z,23.57
2023-01-31T08:28:11.762Z,21.97
2023-01-31T08:30:42.289Z,18.80
2023-01-31T08:33:09.752Z,18.67
2023-01-31T08:35:36.811Z,16.80
2023-01-31T08:38:16.080Z,15.73
2023-01-31T08:40:43.886Z,20.00
2023-01-31T08:43:10.806Z,16.43
2023-01-31T08:45:37.554Z,16.87
2023-01-31T08:48:04.787Z,14.13
2023-01-31T08:50:32.880Z,22.97
2023-01-31T08:53:01.238Z,13.33
2023-01-31T08:55:29.255Z,21.23
2023-01-31T08:58:00.128Z,22.53
2023-01-31T09:00:27.720Z,17.37
2023-01-31T09:02:59.051Z,23.10
2023-01-31T09:05:27.108Z,21.60
2023-01-31T09:07:54.266Z,41.87
2023-01-31T09:10:21.741Z,20.90
2023-01-31T09:12:48.730Z,13.20
2023-01-31T09:15:15.578Z,10.73
2023-01-31T09:17:44.197Z,18.87
2023-01-31T09:20:11.287Z,13.27
2023-01-31T09:22:38.390Z,14.53
2023-01-31T09:25:05.633Z,15.83
2023-01-31T09:27:32.390Z,17.00
2023-01-31T09:29:59.410Z,17.47
2023-01-31T09:32:26.226Z,13.30
2023-01-31T09:34:53.044Z,7.10
2023-01-31T09:37:19.923Z,11.93
2023-01-31T09:39:46.688Z,15.63
2023-01-31T09:42:19.919Z,13.07
2023-01-31T09:44:53.502Z,15.47
2023-01-31T09:47:30.088Z,14.40
2023-01-31T09:50:06.101Z,14.50
2023-01-31T09:52:33.463Z,10.70
2023-01-31T09:55:00.513Z,16.27
2023-01-31T09:57:35.148Z,11.37
2023-01-31T10:00:02.011Z,16.93
2023-01-31T10:02:40.006Z,13.87
2023-01-31T10:05:15.088Z,18.03
2023-01-31T10:07:46.514Z,16.30
2023-01-31T10:10:13.991Z,17.53
2023-01-31T10:12:43.306Z,16.07
2023-01-31T10:15:23.119Z,16.17
2023-01-31T10:17:53.504Z,17.07
2023-01-31T10:20:30.428Z,17.70
2023-01-31T10:23:26.334Z,18.37
2023-01-31T10:25:55.932Z,16.37
2023-01-31T10:28:32.402Z,20.67
2023-01-31T10:31:18.065Z,19.37
2023-01-31T10:33:44.897Z,29.83
2023-01-31T10:36:15.021Z,18.50
2023-01-31T10:39:02.758Z,8.80
2023-01-31T10:41:45.485Z,30.80
2023-01-31T10:44:21.923Z,16.13
2023-01-31T10:46:48.790Z,15.10
2023-01-31T10:49:15.713Z,16.00
2023-01-31T10:51:55.543Z,15.37
2023-01-31T10:54:22.446Z,15.03
2023-01-31T10:56:49.701Z,14.00
2023-01-31T10:59:23.168Z,9.73
2023-01-31T11:01:50.419Z,12.87
2023-01-31T11:04:25.509Z,16.67
2023-01-31T11:06:52.634Z,21.07
2023-01-31T11:09:22.005Z,11.50
2023-01-31T11:11:56.985Z,15.07
2023-01-31T11:14:23.913Z,25.27
2023-01-31T11:16:57.162Z,11.27
2023-01-31T11:19:30.227Z,13.50
2023-01-31T11:21:57.170Z,17.00
2023-01-31T11:24:24.781Z,14.37
2023-01-31T11:27:00.653Z,11.40
2023-01-31T11:29:33.348Z,9.50
2023-01-31T11:32:02.004Z,21.87
2023-01-31T11:34:31.000Z,19.77
2023-01-31T11:37:14.580Z,15.00
2023-01-31T11:39:41.698Z,21.47
2023-01-31T11:42:12.927Z,10.10
2023-01-31T11:44:56.373Z,26.57
2023-01-31T11:47:28.493Z,9.70
2023-01-31T11:49:55.316Z,12.37
2023-01-31T11:52:23.929Z,9.63
2023-01-31T11:54:54.541Z,12.40
2023-01-31T11:57:25.891Z,11.70
2023-01-31T11:59:54.894Z,18.93
2023-01-31T12:02:41.961Z,13.57
2023-01-31T12:05:16.536Z,9.53
2023-01-31T12:07:48.233Z,10.37
2023-01-31T12:10:33.578Z,10.70
2023-01-31T12:13:16.772Z,8.80
2023-01-31T12:15:58.116Z,14.10
2023-01-31T12:18:45.630Z,17.40
2023-01-31T12:21:16.765Z,14.37
2023-01-31T12:23:55.899Z,9.80
2023-01-31T12:26:41.219Z,14.93
2023-01-31T12:29:17.171Z,7.87
2023-01-31T12:32:03.035Z,12.90
2023-01-31T12:35:00.133Z,13.33
2023-01-31T12:37:41.611Z,10.47
2023-01-31T12:40:24.667Z,8.40
2023-01-31T12:42:52.541Z,13.40
2023-01-31T12:45:27.199Z,13.23
2023-01-31T12:47:57.209Z,12.90
2023-01-31T12:50:47.001Z,7.17
2023-01-31T12:53:28.968Z,8.37
2023-01-31T12:55:59.000Z,14.53
2023-01-31T12:58:25.806Z,15.03
2023-01-31T13:00:59.672Z,10.70
2023-01-31T13:03:32.702Z,14.03
2023-01-31T13:06:01.935Z,10.50
2023-01-31T13:08:30.182Z,19.97
2023-01-31T13:11:17.379Z,15.27
2023-01-31T13:14:01.485Z,10.90
2023-01-31T13:16:35.901Z,8.97
2023-01-31T13:19:05.071Z,10.57
2023-01-31T13:21:34.793Z,12.77
2023-01-31T13:24:19.311Z,10.83
2023-01-31T13:26:48.878Z,10.03
2023-01-31T13:29:33.954Z,15.97
2023-01-31T13:32:02.878Z,7.37
2023-01-31T13:34:44.071Z,10.13
2023-01-31T13:37:21.542Z,7.10
2023-01-31T13:39:50.066Z,14.77
2023-01-31T13:42:17.337Z,11.73
2023-01-31T13:44:46.262Z,11.43
2023-01-31T13:47:12.994Z,11.83
2023-01-31T13:49:44.428Z,9.57
2023-01-31T13:52:30.670Z,11.10
2023-01-31T13:55:02.365Z,10.27
2023-01-31T13:57:32.006Z,13.00
2023-01-31T14:00:04.948Z,9.07
2023-01-31T14:02:31.840Z,18.90
2023-01-31T14:05:27.628Z,13.53
2023-01-31T14:08:20.593Z,11.40
2023-01-31T14:10:51.878Z,14.00
2023-01-31T14:13:27.153Z,12.17
2023-01-31T14:15:55.195Z,7.70
2023-01-31T14:18:51.333Z,6.83
2023-01-31T14:21:30.579Z,7.57
2023-01-31T14:23:58.778Z,12.63
2023-01-31T14:26:32.559Z,12.77
2023-01-31T14:28:59.354Z,15.50
2023-01-31T14:31:27.026Z,11.97
2023-01-31T14:33:57.622Z,11.97
2023-01-31T14:36:37.252Z,17.70
2023-01-31T14:39:17.040Z,8.93
2023-01-31T14:41:57.664Z,16.20
2023-01-31T14:44:43.266Z,13.70
2023-01-31T14:47:16.313Z,16.63
2023-01-31T14:49:46.977Z,16.30
2023-01-31T14:52:21.677Z,19.33
2023-01-31T14:54:58.828Z,14.83
2023-01-31T14:57:27.165Z,13.10
2023-01-31T15:00:03.368Z,14.13
2023-01-31T15:02:33.259Z,11.83
2023-01-31T15:05:07.571Z,12.63
2023-01-31T15:07:34.469Z,20.43
2023-01-31T15:10:01.240Z,36.73
2023-01-31T15:12:46.695Z,46.30
2023-01-31T15:15:34.251Z,15.67
2023-01-31T15:18:03.715Z,24.03
2023-01-31T15:20:37.105Z,17.50
2023-01-31T15:23:06.179Z,20.40
2023-01-31T15:25:40.064Z,17.80
2023-01-31T15:28:07.805Z,18.63
2023-01-31T15:30:36.275Z,18.90
2023-01-31T15:33:08.634Z,24.13
2023-01-31T15:35:38.593Z,24.10
2023-01-31T15:38:11.079Z,25.43
2023-01-31T15:40:38.035Z,21.43
2023-01-31T15:43:18.481Z,18.50
2023-01-31T15:45:45.375Z,16.10
2023-01-31T15:48:13.808Z,15.17
2023-01-31T15:51:01.355Z,21.80
2023-01-31T15:53:31.386Z,23.40
2023-01-31T15:56:02.937Z,17.13
2023-01-31T15:58:31.348Z,22.80
2023-01-31T16:00:59.583Z,21.10
2023-01-31T16:03:28.054Z,51.97
2023-01-31T16:05:56.970Z,20.43
2023-01-31T16:08:23.832Z,21.77
2023-01-31T16:10:50.764Z,37.90
2023-01-31T16:13:18.115Z,38.70
2023-01-31T16:15:45.431Z,41.37
2023-01-31T16:18:13.045Z,33.10
2023-01-31T16:20:43.312Z,39.80
2023-01-31T16:23:25.659Z,25.03
2023-01-31T16:25:57.976Z,24.07
2023-01-31T16:28:25.290Z,17.03
2023-01-31T16:30:52.408Z,16.93
2023-01-31T16:33:22.262Z,16.17
2023-01-31T16:36:12.868Z,18.73
2023-01-31T16:38:43.410Z,17.53
2023-01-31T16:41:13.118Z,33.90
2023-01-31T16:43:41.607Z,47.17
2023-01-31T16:46:31.738Z,29.10
2023-01-31T16:49:06.352Z,19.13
2023-01-31T16:51:40.996Z,20.50
2023-01-31T16:54:28.616Z,25.50
2023-01-31T16:57:01.486Z,18.67
2023-01-31T16:59:34.565Z,32.10
2023-01-31T17:02:02.949Z,15.90
2023-01-31T17:04:30.428Z,13.80
2023-01-31T17:07:06.718Z,16.50
2023-01-31T17:09:35.606Z,14.57
2023-01-31T17:12:02.522Z,16.00
2023-01-31T17:14:30.100Z,16.53
2023-01-31T17:16:56.918Z,17.50
2023-01-31T17:19:24.429Z,13.53
2023-01-31T17:21:51.665Z,15.67
2023-01-31T17:24:20.072Z,15.63
2023-01-31T17:26:46.965Z,16.17
2023-01-31T17:29:13.858Z,12.23
2023-01-31T17:31:42.328Z,15.07
2023-01-31T17:34:16.106Z,12.30
2023-01-31T17:36:43.633Z,13.23
2023-01-31T17:39:10.429Z,22.23
2023-01-31T17:41:37.836Z,13.87
2023-01-31T17:44:06.701Z,14.40
2023-01-31T17:46:33.729Z,17.07
2023-01-31T17:49:00.651Z,13.93
2023-01-31T17:51:27.455Z,16.37
2023-01-31T17:53:54.378Z,17.20
2023-01-31T17:56:21.368Z,17.87
2023-01-31T17:58:49.511Z,13.20
2023-01-31T18:01:16.373Z,17.03
2023-01-31T18:03:43.345Z,15.47
2023-01-31T18:06:10.375Z,16.27
2023-01-31T18:08:37.238Z,16.47
2023-01-31T18:11:11.680Z,18.83
2023-01-31T18:13:38.637Z,14.07
2023-01-31T18:16:10.272Z,19.57
2023-01-31T18:18:38.421Z,15.20
2023-01-31T18:21:08.304Z,16.67
2023-01-31T18:23:35.787Z,16.40
2023-01-31T18:26:04.169Z,16.57
2023-01-31T18:28:31.524Z,19.03
2023-01-31T18:31:05.286Z,13.73
2023-01-31T18:33:32.765Z,14.47
2023-01-31T18:36:00.109Z,12.37
2023-01-31T18:38:27.871Z,7.90
2023-01-31T18:40:55.078Z,12.60
2023-01-31T18:43:21.926Z,13.60
2023-01-31T18:45:48.839Z,15.00
2023-01-31T18:48:15.631Z,15.37
2023-01-31T18:50:42.397Z,13.93
2023-01-31T18:53:09.382Z,14.37
2023-01-31T18:55:36.132Z,18.00
2023-01-31T18:58:03.617Z,10.60
2023-01-31T19:00:30.452Z,11.53
2023-01-31T19:02:57.336Z,12.70
2023-01-31T19:05:24.123Z,12.70
2023-01-31T19:07:51.004Z,12.50
2023-01-31T19:10:17.893Z,10.40
2023-01-31T19:12:44.712Z,9.30
2023-01-31T19:15:12.593Z,11.47
2023-01-31T19:17:39.489Z,12.13
2023-01-31T19:20:06.525Z,13.97
2023-01-31T19:22:33.470Z,12.37
2023-01-31T19:25:00.203Z,16.17
2023-01-31T19:27:27.106Z,14.33
2023-01-31T19:29:53.919Z,12.60
2023-01-31T19:32:22.577Z,11.57
2023-01-31T19:34:49.357Z,13.10
2023-01-31T19:37:16.164Z,15.27
2023-01-31T19:39:43.168Z,11.80
2023-01-31T19:42:10.002Z,17.77
2023-01-31T19:44:36.779Z,14.63
2023-01-31T19:47:03.691Z,12.70
2023-01-31T19:49:30.506Z,17.47
2023-01-31T19:51:57.343Z,13.03
2023-01-31T19:54:24.512Z,13.10
2023-01-31T19:56:52.063Z,12.77
2023-01-31T19:59:19.874Z,12.87
2023-01-31T20:01:46.673Z,11.53
2023-01-31T20:04:13.540Z,13.80
2023-01-31T20:06:40.276Z,15.57
2023-01-31T20:09:09.461Z,14.70
2023-01-31T20:11:37.009Z,15.20
2023-01-31T20:14:04.710Z,14.77
2023-01-31T20:16:31.559Z,14.50
2023-01-31T20:19:00.995Z,15.73
2023-01-31T20:21:27.983Z,13.30
2023-01-31T20:23:54.796Z,14.07
2023-01-31T20:26:24.439Z,16.13
2023-01-31T20:28:51.668Z,13.67
2023-01-31T20:31:18.587Z,13.23
2023-01-31T20:33:45.455Z,13.43
2023-01-31T20:36:12.610Z,13.53
2023-01-31T20:38:40.180Z,14.40
2023-01-31T20:41:08.661Z,14.50
2023-01-31T20:43:35.938Z,14.93
2023-01-31T20:46:07.129Z,14.80
2023-01-31T20:48:34.061Z,12.50
2023-01-31T20:51:01.312Z,14.93
2023-01-31T20:53:28.860Z,20.33
2023-01-31T20:55:55.719Z,33.50
2023-01-31T20:58:23.010Z,14.47
2023-01-31T21:00:49.835Z,10.70
2023-01-31T21:03:16.700Z,15.07
2023-01-31T21:05:43.618Z,17.97
2023-01-31T21:08:10.469Z,13.77
2023-01-31T21:10:37.228Z,15.17
2023-01-31T21:13:04.335Z,15.23
2023-01-31T21:15:31.635Z,13.03
2023-01-31T21:17:58.579Z,17.27
2023-01-31T21:20:25.501Z,15.63
2023-01-31T21:22:52.377Z,13.67
2023-01-31T21:25:19.207Z,10.63
2023-01-31T21:27:48.586Z,14.30
2023-01-31T21:30:17.153Z,10.37
2023-01-31T21:32:43.918Z,10.73
2023-01-31T21:35:10.962Z,10.47
2023-01-31T21:37:37.761Z,9.30
2023-01-31T21:40:04.843Z,11.03
2023-01-31T21:42:31.570Z,11.70
2023-01-31T21:44:58.327Z,10.40
2023-01-31T21:47:25.123Z,9.03
2023-01-31T21:49:51.968Z,10.37
2023-01-31T21:52:18.797Z,12.03
2023-01-31T21:54:45.638Z,10.10
2023-01-31T21:57:12.575Z,10.60
2023-01-31T21:59:39.627Z,12.67
2023-01-31T22:02:06.586Z,9.00
2023-01-31T22:04:33.394Z,7.80
2023-01-31T22:07:00.235Z,7.53
2023-01-31T22:09:27.063Z,6.90
2023-01-31T22:11:54.680Z,8.03
2023-01-31T22:14:21.474Z,9.00
2023-01-31T22:16:50.289Z,8.63
2023-01-31T22:19:17.153Z,6.97
2023-01-31T22:21:44.692Z,4.97
2023-01-31T22:24:11.931Z,7.37
2023-01-31T22:26:43.607Z,6.10
2023-01-31T22:29:11.865Z,6.57
2023-01-31T22:31:39.608Z,8.63
2023-01-31T22:34:07.615Z,6.57
2023-01-31T22:36:35.045Z,7.80
2023-01-31T22:39:02.487Z,7.63
2023-01-31T22:41:29.858Z,6.07
2023-01-31T22:43:57.297Z,6.13
2023-01-31T22:46:25.341Z,4.63
2023-01-31T22:48:52.918Z,6.63
2023-01-31T22:51:21.211Z,5.70
2023-01-31T22:53:48.559Z,6.57
2023-01-31T22:56:17.624Z,5.87
2023-01-31T22:58:44.570Z,8.47
2023-01-31T23:01:17.231Z,6.40
2023-01-31T23:03:45.793Z,6.27
2023-01-31T23:06:13.241Z,6.23
2023-01-31T23:08:40.557Z,5.97
2023-01-31T23:11:09.744Z,6.07
2023-01-31T23:13:37.723Z,6.43
2023-01-31T23:16:05.759Z,5.43
2023-01-31T23:18:33.352Z,6.77
2023-01-31T23:21:10.666Z,8.13
2023-01-31T23:23:37.758Z,5.90
2023-01-31T23:26:05.466Z,7.03
2023-01-31T23:28:32.740Z,6.13
2023-01-31T23:31:00.994Z,4.97
2023-01-31T23:33:28.404Z,6.07
2023-01-31T23:35:55.272Z,5.40
2023-01-31T23:38:23.089Z,4.77
2023-01-31T23:40:50.569Z,6.83
2023-01-31T23:43:17.716Z,7.33
2023-01-31T23:45:44.729Z,7.30
2023-01-31T23:48:11.890Z,6.67
2023-01-31T23:50:39.401Z,4.50
2023-01-31T23:53:06.202Z,5.23
2023-01-31T23:55:33.093Z,7.37
2023-01-31T23:58:00.088Z,6.10
